Terminal Aerodrome Forecast
Issued by NWS

Home | Current Version | Previous Version | Text Only | Print | Product List | Glossary On
Versions: 1 2 3 4 5 6 7 8 9 10 11 12 13 14 15 16 17 18 19 20 21 22 23 24 25 26 27 28 29 30 31 32 33 34 35 36 37 38
000
FTUS43 KGLD 171857 AAA
TAFMCK
TAF AMD
KMCK 171857Z 1719/1818 09012G20KT P6SM SCT015 BKN035
     FM180300 11011KT 5SM -TSRA BKN035CB
     FM180900 08005KT 1SM BR BKN010
     FM181500 16005KT P6SM SCT030 BKN120=

USA.gov is the U.S. government's official web portal to all federal, state and local government web resources and services.